KMLE

Details ICAO KMLE
Name Millard
Region United States
Timezone America/Chicago (UTC-6.0)
Plans Departing 25
Arriving 16
Stats Elevation 1,051 ft / 320 m (AMSL)
Location 41.195960° -96.112295°
Runways 1
Magnetic Variation 2.681° E
Sunrise 2017-12-17 13:45:47 UTC / 2017-12-17 07:45:47 Local
Sunset 2017-12-17 22:58:21 UTC / 2017-12-17 16:58:21 Local
Advertisement - Login to hide

Runways

ID Width Length Bearing (true) Bearing (mag) Surface Threshold Offset Overrun Length
12 75 ft / 23 m 3,804 ft / 1,160 m 128.90° 126.22° Concrete 213 ft / 65 m 0 ft / 0 m
30 75 ft / 23 m 3,804 ft / 1,160 m 308.90° 306.22° Concrete 0 ft / 0 m 0 ft / 0 m

Map

Weather


0- 5 10 15 20 25 30 35+ Temperature / ° C

Clouds and Precipitation
Forecast for 2017-12-18 00:00 UTC. Updated an hour ago

Ground ~20,000 ft ~40,000 ft Winds

METAR

KMLE 172015Z AUTO 30007KT 10SM CLR 04/M01 A2997 RMK AO2 T00391015

TAF

Not found

Frequencies

Recorded 118.25 MHz AWOS 3
Clearance 125.40 MHz CLNC DEL
Unicom 123.00 MHz CTAF/UNICOM
Approach 120.10 MHz OMAHA APP/DEP
Warning: Do not use this data for real-world aviation or navigation. No guarantee of current accuracy is given.